createdAt,value
2022-09-24T00:01:40.996Z,16.50
2022-09-24T00:04:11.542Z,16.60
2022-09-24T00:06:41.892Z,16.40
2022-09-24T00:09:10.300Z,16.10
2022-09-24T00:11:39.199Z,16.10
2022-09-24T00:14:08.766Z,16.10
2022-09-24T00:16:36.722Z,15.90
2022-09-24T00:19:05.057Z,15.80
2022-09-24T00:21:34.814Z,16.10
2022-09-24T00:24:05.175Z,16.20
2022-09-24T00:26:49.831Z,16.20
2022-09-24T00:29:20.771Z,16.20
2022-09-24T00:31:49.491Z,16.30
2022-09-24T00:34:17.548Z,16.30
2022-09-24T00:36:46.707Z,16.00
2022-09-24T00:39:14.823Z,15.90
2022-09-24T00:41:47.066Z,15.80
2022-09-24T00:44:52.860Z,15.90
2022-09-24T00:47:31.571Z,15.80
2022-09-24T00:50:09.908Z,15.70
2022-09-24T00:52:41.546Z,15.80
2022-09-24T00:55:10.485Z,15.70
2022-09-24T00:57:39.593Z,15.60
2022-09-24T01:00:10.450Z,15.50
2022-09-24T01:02:42.022Z,15.80
2022-09-24T01:05:10.671Z,16.00
2022-09-24T01:07:38.469Z,15.80
2022-09-24T01:10:07.025Z,15.80
2022-09-24T01:12:45.102Z,15.70
2022-09-24T01:15:22.387Z,15.80
2022-09-24T01:17:58.420Z,15.80
2022-09-24T01:20:54.837Z,15.90
2022-09-24T01:23:39.280Z,15.80
2022-09-24T01:26:20.318Z,15.80
2022-09-24T01:29:05.862Z,16.00
2022-09-24T01:31:40.890Z,15.90
2022-09-24T01:34:12.304Z,15.90
2022-09-24T01:36:41.452Z,15.50
2022-09-24T01:39:09.975Z,15.40
2022-09-24T01:41:39.984Z,15.40
2022-09-24T01:44:07.803Z,15.40
2022-09-24T01:46:39.358Z,15.40
2022-09-24T01:49:07.350Z,15.60
2022-09-24T01:51:43.930Z,15.70
2022-09-24T01:54:17.996Z,15.70
2022-09-24T01:56:50.333Z,15.80
2022-09-24T01:59:23.568Z,15.70
2022-09-24T02:01:58.430Z,15.70
2022-09-24T02:04:28.536Z,15.60
2022-09-24T02:07:01.892Z,15.30
2022-09-24T02:09:34.714Z,15.30
2022-09-24T02:12:11.354Z,15.40
2022-09-24T02:14:44.928Z,15.30
2022-09-24T02:17:16.253Z,15.30
2022-09-24T02:19:45.129Z,15.30
2022-09-24T02:22:14.997Z,15.20
2022-09-24T02:24:49.065Z,15.10
2022-09-24T02:27:17.236Z,15.10
2022-09-24T02:29:46.112Z,15.10
2022-09-24T02:32:19.317Z,15.10
2022-09-24T02:34:48.842Z,15.40
2022-09-24T02:37:18.139Z,15.60
2022-09-24T02:39:45.811Z,15.50
2022-09-24T02:42:15.659Z,15.60
2022-09-24T02:44:43.404Z,15.60
2022-09-24T02:47:11.498Z,15.50
2022-09-24T02:49:40.580Z,15.50
2022-09-24T02:52:08.393Z,15.60
2022-09-24T02:54:36.056Z,15.30
2022-09-24T02:57:03.785Z,15.30
2022-09-24T02:59:31.613Z,15.40
2022-09-24T03:01:59.360Z,15.20
2022-09-24T03:04:28.577Z,15.30
2022-09-24T03:06:57.734Z,15.20
2022-09-24T03:09:25.419Z,15.10
2022-09-24T03:11:53.144Z,15.30
2022-09-24T03:14:20.810Z,15.20
2022-09-24T03:16:48.489Z,15.30
2022-09-24T03:19:16.142Z,15.40
2022-09-24T03:21:43.804Z,15.40
2022-09-24T03:24:12.793Z,15.50
2022-09-24T03:26:40.471Z,15.30
2022-09-24T03:29:08.168Z,15.20
2022-09-24T03:31:34.910Z,15.10
2022-09-24T03:34:02.622Z,15.10
2022-09-24T03:36:30.316Z,15.10
2022-09-24T03:38:58.545Z,15.10
2022-09-24T03:41:28.339Z,15.10
2022-09-24T03:43:56.552Z,15.30
2022-09-24T03:46:30.178Z,15.30
2022-09-24T03:49:00.375Z,15.10
2022-09-24T03:51:28.182Z,15.00
2022-09-24T03:53:55.881Z,15.20
2022-09-24T03:56:24.158Z,15.30
2022-09-24T03:58:53.191Z,15.50
2022-09-24T04:01:22.025Z,15.30
2022-09-24T04:03:50.323Z,15.20
2022-09-24T04:06:23.351Z,15.20
2022-09-24T04:08:52.651Z,15.30
2022-09-24T04:11:20.318Z,15.20
2022-09-24T04:13:48.058Z,15.20
2022-09-24T04:16:17.210Z,15.30
2022-09-24T04:18:47.921Z,15.20
2022-09-24T04:21:15.593Z,15.10
2022-09-24T04:23:43.347Z,15.10
2022-09-24T04:26:11.008Z,15.00
2022-09-24T04:28:38.748Z,15.10
2022-09-24T04:31:06.498Z,15.10
2022-09-24T04:33:35.604Z,15.10
2022-09-24T04:36:03.568Z,15.10
2022-09-24T04:38:31.299Z,15.10
2022-09-24T04:41:06.133Z,15.00
2022-09-24T04:43:34.126Z,14.80
2022-09-24T04:46:01.897Z,14.80
2022-09-24T04:48:30.102Z,14.90
2022-09-24T04:50:59.266Z,14.90
2022-09-24T04:53:27.114Z,15.00
2022-09-24T04:55:54.796Z,15.00
2022-09-24T04:58:22.546Z,15.10
2022-09-24T05:00:51.157Z,15.30
2022-09-24T05:03:19.077Z,15.30
2022-09-24T05:05:47.020Z,15.20
2022-09-24T05:08:16.412Z,15.10
2022-09-24T05:10:44.152Z,15.20
2022-09-24T05:13:11.809Z,15.20
2022-09-24T05:15:43.009Z,15.10
2022-09-24T05:18:11.101Z,15.00
2022-09-24T05:20:38.826Z,15.10
2022-09-24T05:23:07.093Z,15.30
2022-09-24T05:25:57.032Z,15.30
2022-09-24T05:28:23.903Z,15.30
2022-09-24T05:30:51.580Z,15.20
2022-09-24T05:33:19.307Z,15.30
2022-09-24T05:35:54.378Z,15.30
2022-09-24T05:38:22.321Z,15.10
2022-09-24T05:40:51.754Z,15.00
2022-09-24T05:43:20.198Z,15.00
2022-09-24T05:45:49.985Z,15.10
2022-09-24T05:48:17.777Z,15.10
2022-09-24T05:50:45.444Z,15.10
2022-09-24T05:53:13.213Z,15.00
2022-09-24T05:55:40.936Z,15.00
2022-09-24T05:58:11.741Z,15.20
2022-09-24T06:00:39.679Z,15.50
2022-09-24T06:03:11.715Z,15.60
2022-09-24T06:05:39.536Z,15.50
2022-09-24T06:08:08.631Z,15.40
2022-09-24T06:10:37.148Z,15.40
2022-09-24T06:13:05.071Z,15.40
2022-09-24T06:15:34.979Z,15.20
2022-09-24T06:18:02.936Z,15.10
2022-09-24T06:20:30.641Z,15.20
2022-09-24T06:22:58.530Z,15.20
2022-09-24T06:25:26.542Z,15.20
2022-09-24T06:28:00.585Z,15.30
2022-09-24T06:30:30.293Z,15.30
2022-09-24T06:33:05.268Z,15.30
2022-09-24T06:35:34.621Z,15.30
2022-09-24T06:38:02.315Z,15.20
2022-09-24T06:40:34.138Z,15.20
2022-09-24T06:43:05.120Z,15.30
2022-09-24T06:45:32.972Z,15.40
2022-09-24T06:48:05.973Z,15.50
2022-09-24T06:50:35.978Z,15.40
2022-09-24T06:53:06.242Z,15.40
2022-09-24T06:55:34.969Z,15.50
2022-09-24T06:58:04.329Z,15.60
2022-09-24T07:00:32.428Z,15.60
2022-09-24T07:03:00.372Z,15.70
2022-09-24T07:05:29.489Z,15.60
2022-09-24T07:07:57.280Z,15.60
2022-09-24T07:10:26.431Z,15.70
2022-09-24T07:12:56.312Z,15.70
2022-09-24T07:15:24.037Z,15.80
2022-09-24T07:17:59.184Z,15.90
2022-09-24T07:20:28.162Z,16.00
2022-09-24T07:22:57.309Z,16.00
2022-09-24T07:25:25.043Z,16.10
2022-09-24T07:27:52.778Z,16.10
2022-09-24T07:30:21.610Z,16.10
2022-09-24T07:32:54.903Z,16.10
2022-09-24T07:35:22.871Z,16.10
2022-09-24T07:37:56.979Z,16.20
2022-09-24T07:40:27.921Z,16.40
2022-09-24T07:42:55.905Z,16.40
2022-09-24T07:45:27.982Z,16.50
2022-09-24T07:48:01.250Z,16.50
2022-09-24T07:50:33.259Z,16.60
2022-09-24T07:53:01.323Z,16.50
2022-09-24T07:55:30.329Z,16.50
2022-09-24T07:57:58.075Z,16.70
2022-09-24T08:00:26.351Z,16.60
2022-09-24T08:02:56.311Z,16.70
2022-09-24T08:05:24.110Z,16.90
2022-09-24T08:07:53.993Z,17.00
2022-09-24T08:10:22.019Z,17.20
2022-09-24T08:12:52.296Z,17.30
2022-09-24T08:15:20.322Z,17.50
2022-09-24T08:17:48.049Z,17.60
2022-09-24T08:20:16.093Z,17.70
2022-09-24T08:22:43.944Z,17.70
2022-09-24T08:25:11.831Z,17.60
2022-09-24T08:27:39.666Z,17.70
2022-09-24T08:30:10.121Z,17.60
2022-09-24T08:32:37.896Z,17.70
2022-09-24T08:35:08.171Z,17.60
2022-09-24T08:37:36.329Z,17.50
2022-09-24T08:40:04.777Z,17.60
2022-09-24T08:42:43.723Z,17.80
2022-09-24T08:45:32.444Z,18.00
2022-09-24T08:48:06.793Z,17.90
2022-09-24T08:50:39.482Z,17.80
2022-09-24T08:53:16.184Z,18.00
2022-09-24T08:55:47.347Z,17.90
2022-09-24T08:58:39.249Z,17.70
2022-09-24T09:01:20.594Z,17.80
2022-09-24T09:03:53.376Z,17.80
2022-09-24T09:06:41.735Z,17.90
2022-09-24T09:09:13.479Z,18.20
2022-09-24T09:11:43.067Z,18.20
2022-09-24T09:14:17.501Z,18.20
2022-09-24T09:16:49.519Z,18.50
2022-09-24T09:19:18.988Z,18.80
2022-09-24T09:21:53.630Z,18.70
2022-09-24T09:24:24.250Z,18.70
2022-09-24T09:26:55.162Z,19.00
2022-09-24T09:29:26.428Z,18.80
2022-09-24T09:32:06.036Z,19.00
2022-09-24T09:34:52.232Z,19.10
2022-09-24T09:37:28.145Z,19.30
2022-09-24T09:40:04.268Z,19.80
2022-09-24T09:42:35.906Z,19.50
2022-09-24T09:45:08.619Z,19.60
2022-09-24T09:47:44.371Z,19.70
2022-09-24T09:50:26.373Z,20.00
2022-09-24T09:52:55.388Z,19.80
2022-09-24T09:55:26.790Z,19.70
2022-09-24T09:57:59.727Z,19.70
2022-09-24T10:00:33.682Z,19.70
2022-09-24T10:03:03.474Z,19.70
2022-09-24T10:05:31.853Z,19.50
2022-09-24T10:07:59.755Z,19.40
2022-09-24T10:10:28.682Z,19.10
2022-09-24T10:13:08.243Z,19.00
2022-09-24T10:15:45.262Z,19.30
2022-09-24T10:18:16.237Z,19.10
2022-09-24T10:20:49.531Z,19.10
2022-09-24T10:23:21.238Z,19.20
2022-09-24T10:26:00.023Z,19.40
2022-09-24T10:28:47.139Z,19.50
2022-09-24T10:31:17.706Z,19.30
2022-09-24T10:33:50.640Z,19.30
2022-09-24T10:36:21.844Z,19.40
2022-09-24T10:38:49.876Z,19.20
2022-09-24T10:41:26.903Z,19.10
2022-09-24T10:43:56.026Z,19.00
2022-09-24T10:46:51.880Z,19.30
2022-09-24T10:49:34.412Z,19.20
2022-09-24T10:52:10.626Z,19.00
2022-09-24T10:54:51.406Z,19.00
2022-09-24T10:57:29.710Z,19.10
2022-09-24T11:00:05.225Z,19.00
2022-09-24T11:03:19.885Z,19.30
2022-09-24T11:05:55.284Z,19.30
2022-09-24T11:08:34.140Z,19.10
2022-09-24T11:11:21.865Z,19.10
2022-09-24T11:13:59.720Z,19.30
2022-09-24T11:16:48.688Z,19.30
2022-09-24T11:19:26.443Z,19.40
2022-09-24T11:22:11.272Z,19.30
2022-09-24T11:24:51.138Z,19.30
2022-09-24T11:27:39.866Z,19.50
2022-09-24T11:30:14.560Z,19.70
2022-09-24T11:33:01.570Z,19.90
2022-09-24T11:36:05.415Z,19.80
2022-09-24T11:39:01.604Z,19.70
2022-09-24T11:41:44.698Z,20.10
2022-09-24T11:44:28.206Z,20.10
2022-09-24T11:47:09.126Z,20.40
2022-09-24T11:49:53.080Z,20.70
2022-09-24T11:52:28.835Z,21.00
2022-09-24T11:55:05.384Z,21.00
2022-09-24T11:57:37.918Z,20.70
2022-09-24T12:00:08.433Z,20.80
2022-09-24T12:02:42.069Z,20.80
2022-09-24T12:05:16.722Z,20.90
2022-09-24T12:07:50.800Z,20.50
2022-09-24T12:10:30.953Z,20.70
2022-09-24T12:13:05.523Z,21.00
2022-09-24T12:15:42.027Z,21.00
2022-09-24T12:18:17.364Z,21.00
2022-09-24T12:20:50.799Z,21.40
2022-09-24T12:23:23.758Z,21.30
2022-09-24T12:25:53.550Z,21.30
2022-09-24T12:28:40.040Z,21.20
2022-09-24T12:31:32.539Z,21.10
2022-09-24T12:34:06.070Z,21.30
2022-09-24T12:36:43.541Z,21.10
2022-09-24T12:39:14.349Z,21.10
2022-09-24T12:41:48.097Z,21.10
2022-09-24T12:44:22.095Z,21.10
2022-09-24T12:46:53.662Z,21.00
2022-09-24T12:49:32.072Z,21.20
2022-09-24T12:52:01.606Z,21.00
2022-09-24T12:54:31.999Z,21.00
2022-09-24T12:57:14.324Z,20.90
2022-09-24T12:59:53.739Z,20.60
2022-09-24T13:02:23.430Z,20.30
2022-09-24T13:05:05.267Z,20.30
2022-09-24T13:07:35.793Z,20.60
2022-09-24T13:10:23.502Z,20.50
2022-09-24T13:12:54.121Z,20.60
2022-09-24T13:15:28.748Z,20.80
2022-09-24T13:18:05.334Z,20.90
2022-09-24T13:20:34.438Z,20.90
2022-09-24T13:23:15.791Z,20.80
2022-09-24T13:25:54.826Z,20.90
2022-09-24T13:28:37.384Z,21.00
2022-09-24T13:31:15.488Z,21.40
2022-09-24T13:33:49.039Z,21.50
2022-09-24T13:36:20.663Z,21.70
2022-09-24T13:38:57.168Z,21.80
2022-09-24T13:41:33.276Z,21.50
2022-09-24T13:44:07.259Z,21.40
2022-09-24T13:46:37.376Z,21.70
2022-09-24T13:49:11.226Z,21.70
2022-09-24T13:51:41.967Z,21.60
2022-09-24T13:54:18.177Z,21.20
2022-09-24T13:56:58.603Z,21.10
2022-09-24T13:59:28.100Z,21.00
2022-09-24T14:01:56.193Z,20.60
2022-09-24T14:04:24.606Z,20.60
2022-09-24T14:06:55.455Z,20.60
2022-09-24T14:09:29.314Z,20.40
2022-09-24T14:11:59.259Z,20.00
2022-09-24T14:14:30.063Z,20.00
2022-09-24T14:17:08.376Z,19.90
2022-09-24T14:19:36.275Z,19.80
2022-09-24T14:22:06.233Z,19.60
2022-09-24T14:24:36.468Z,19.80
2022-09-24T14:27:08.001Z,19.40
2022-09-24T14:29:47.906Z,19.60
2022-09-24T14:32:23.356Z,19.70
2022-09-24T14:34:53.943Z,19.70
2022-09-24T14:37:25.399Z,20.00
2022-09-24T14:39:59.975Z,20.00
2022-09-24T14:42:30.780Z,20.00
2022-09-24T14:45:02.020Z,20.00
2022-09-24T14:47:31.549Z,20.00
2022-09-24T14:49:59.364Z,20.10
2022-09-24T14:52:30.900Z,20.20
2022-09-24T14:55:16.174Z,20.10
2022-09-24T14:57:49.607Z,20.00
2022-09-24T15:00:23.473Z,19.90
2022-09-24T15:02:57.841Z,20.10
2022-09-24T15:05:27.523Z,20.10
2022-09-24T15:08:27.272Z,20.10
2022-09-24T15:10:56.894Z,19.60
2022-09-24T15:13:26.740Z,19.30
2022-09-24T15:16:09.938Z,19.20
2022-09-24T15:18:37.690Z,18.80
2022-09-24T15:21:08.737Z,18.70
2022-09-24T15:23:36.406Z,18.50
2022-09-24T15:26:04.668Z,18.70
2022-09-24T15:28:32.555Z,18.70
2022-09-24T15:31:00.360Z,18.60
2022-09-24T15:33:29.402Z,18.50
2022-09-24T15:35:57.070Z,18.30
2022-09-24T15:38:24.800Z,18.40
2022-09-24T15:40:53.764Z,18.30
2022-09-24T15:43:23.562Z,18.10
2022-09-24T15:45:52.000Z,18.20
2022-09-24T15:48:19.917Z,18.10
2022-09-24T15:50:50.528Z,18.20
2022-09-24T15:53:21.588Z,18.00
2022-09-24T15:55:53.424Z,18.00
2022-09-24T15:58:24.598Z,17.80
2022-09-24T16:00:52.974Z,17.80
2022-09-24T16:03:26.895Z,17.80
2022-09-24T16:05:57.031Z,17.80
2022-09-24T16:08:24.955Z,17.80
2022-09-24T16:10:53.889Z,17.80
2022-09-24T16:13:23.248Z,17.90
2022-09-24T16:15:51.101Z,18.10
2022-09-24T16:18:18.944Z,18.30
2022-09-24T16:20:47.354Z,18.30
2022-09-24T16:23:17.733Z,18.40
2022-09-24T16:25:56.551Z,18.40
2022-09-24T16:28:24.645Z,18.50
2022-09-24T16:30:52.376Z,18.50
2022-09-24T16:33:20.091Z,18.70
2022-09-24T16:35:47.975Z,18.70
2022-09-24T16:38:22.502Z,18.60
2022-09-24T16:40:52.024Z,18.60
2022-09-24T16:43:19.998Z,18.60
2022-09-24T16:45:47.978Z,18.60
2022-09-24T16:48:15.802Z,18.60
2022-09-24T16:50:43.513Z,18.80
2022-09-24T16:53:11.175Z,18.80
2022-09-24T16:55:42.473Z,18.80
2022-09-24T16:58:10.647Z,18.90
2022-09-24T17:00:42.237Z,18.90
2022-09-24T17:03:12.091Z,18.90
2022-09-24T17:05:40.671Z,18.90
2022-09-24T17:08:08.518Z,18.90
2022-09-24T17:10:35.255Z,18.90
2022-09-24T17:13:04.250Z,18.80
2022-09-24T17:15:32.040Z,18.80
2022-09-24T17:17:59.919Z,18.70
2022-09-24T17:20:27.838Z,18.70
2022-09-24T17:22:55.523Z,18.60
2022-09-24T17:25:23.425Z,18.70
2022-09-24T17:27:51.137Z,18.70
2022-09-24T17:30:20.333Z,18.70
2022-09-24T17:32:48.011Z,18.70
2022-09-24T17:35:15.910Z,18.60
2022-09-24T17:37:45.083Z,18.60
2022-09-24T17:40:12.911Z,18.50
2022-09-24T17:42:45.721Z,18.40
2022-09-24T17:45:13.484Z,18.30
2022-09-24T17:47:57.485Z,18.30
2022-09-24T17:50:25.290Z,18.20
2022-09-24T17:52:52.976Z,18.10
2022-09-24T17:55:20.728Z,18.00
2022-09-24T17:57:48.411Z,18.00
2022-09-24T18:00:16.257Z,18.00
2022-09-24T18:02:45.307Z,18.00
2022-09-24T18:05:13.102Z,18.10
2022-09-24T18:07:41.475Z,18.20
2022-09-24T18:10:09.961Z,18.20
2022-09-24T18:12:37.678Z,18.20
2022-09-24T18:15:05.922Z,18.00
2022-09-24T18:17:33.596Z,17.90
2022-09-24T18:20:03.106Z,17.80
2022-09-24T18:22:30.793Z,17.90
2022-09-24T18:25:00.683Z,18.10
2022-09-24T18:27:28.437Z,18.10
2022-09-24T18:29:58.231Z,18.10
2022-09-24T18:32:26.349Z,18.10
2022-09-24T18:34:54.231Z,18.10
2022-09-24T18:37:23.279Z,18.10
2022-09-24T18:39:51.006Z,18.10
2022-09-24T18:42:18.733Z,18.10
2022-09-24T18:44:47.424Z,18.10
2022-09-24T18:47:15.463Z,18.10
2022-09-24T18:49:43.751Z,18.10
2022-09-24T18:52:11.557Z,18.10
2022-09-24T18:54:40.682Z,18.10
2022-09-24T18:57:08.414Z,18.10
2022-09-24T18:59:44.345Z,17.90
2022-09-24T19:02:13.323Z,17.80
2022-09-24T19:04:41.334Z,17.80
2022-09-24T19:07:10.705Z,17.90
2022-09-24T19:09:39.801Z,17.80
2022-09-24T19:12:08.750Z,17.80
2022-09-24T19:14:36.733Z,17.80
2022-09-24T19:17:07.073Z,17.70
2022-09-24T19:19:34.841Z,17.80
2022-09-24T19:22:02.856Z,17.80
2022-09-24T19:24:30.544Z,17.80
2022-09-24T19:26:59.613Z,17.60
2022-09-24T19:29:27.794Z,17.50
2022-09-24T19:31:55.468Z,17.50
2022-09-24T19:34:23.197Z,17.40
2022-09-24T19:36:50.878Z,17.40
2022-09-24T19:39:19.115Z,17.50
2022-09-24T19:41:47.225Z,17.60
2022-09-24T19:44:17.035Z,17.60
2022-09-24T19:46:45.096Z,17.70
2022-09-24T19:49:13.672Z,17.60
2022-09-24T19:51:41.404Z,17.40
2022-09-24T19:54:09.476Z,17.50
2022-09-24T19:56:38.357Z,17.50
2022-09-24T19:59:07.887Z,17.40
2022-09-24T20:01:37.531Z,17.40
2022-09-24T20:04:07.565Z,17.40
2022-09-24T20:06:36.975Z,17.60
2022-09-24T20:09:05.118Z,17.70
2022-09-24T20:11:33.244Z,17.70
2022-09-24T20:14:01.916Z,17.70
2022-09-24T20:16:32.365Z,17.50
2022-09-24T20:19:02.703Z,17.50
2022-09-24T20:21:34.356Z,17.40
2022-09-24T20:24:03.629Z,17.40
2022-09-24T20:26:49.290Z,17.40
2022-09-24T20:29:19.482Z,17.40
2022-09-24T20:31:51.094Z,17.30
2022-09-24T20:34:21.009Z,17.20
2022-09-24T20:36:48.826Z,17.30
2022-09-24T20:39:16.748Z,17.20
2022-09-24T20:41:45.283Z,17.20
2022-09-24T20:44:13.145Z,17.30
2022-09-24T20:46:41.004Z,17.10
2022-09-24T20:49:09.027Z,16.90
2022-09-24T20:51:38.767Z,16.70
2022-09-24T20:54:06.791Z,16.50
2022-09-24T20:56:34.523Z,16.40
2022-09-24T20:59:02.257Z,16.50
2022-09-24T21:01:30.033Z,16.80
2022-09-24T21:03:58.196Z,16.90
2022-09-24T21:06:26.140Z,16.70
2022-09-24T21:08:55.181Z,16.60
2022-09-24T21:11:26.421Z,16.80
2022-09-24T21:13:56.191Z,16.80
2022-09-24T21:16:25.739Z,16.80
2022-09-24T21:18:55.058Z,16.80
2022-09-24T21:21:24.789Z,17.10
2022-09-24T21:23:54.980Z,17.20
2022-09-24T21:26:24.820Z,17.10
2022-09-24T21:28:54.288Z,16.90
2022-09-24T21:31:24.208Z,16.90
2022-09-24T21:33:53.697Z,16.90
2022-09-24T21:36:24.205Z,16.90
2022-09-24T21:38:54.945Z,16.70
2022-09-24T21:41:24.898Z,16.60
2022-09-24T21:43:53.443Z,16.50
2022-09-24T21:46:21.348Z,16.50
2022-09-24T21:48:49.107Z,16.50
2022-09-24T21:51:20.081Z,16.40
2022-09-24T21:53:47.933Z,16.30
2022-09-24T21:56:18.786Z,16.30
2022-09-24T21:58:48.627Z,16.30
2022-09-24T22:01:17.876Z,16.40
2022-09-24T22:03:46.646Z,16.30
2022-09-24T22:06:14.949Z,16.20
2022-09-24T22:08:43.046Z,16.10
2022-09-24T22:11:12.663Z,16.00
2022-09-24T22:13:41.137Z,16.00
2022-09-24T22:16:11.674Z,15.80
2022-09-24T22:18:41.491Z,15.60
2022-09-24T22:21:11.518Z,15.70
2022-09-24T22:23:39.312Z,15.70
2022-09-24T22:26:07.993Z,15.70
2022-09-24T22:28:36.228Z,15.80
2022-09-24T22:31:07.067Z,16.00
2022-09-24T22:33:53.788Z,16.20
2022-09-24T22:36:21.883Z,16.00
2022-09-24T22:38:53.064Z,15.90
2022-09-24T22:41:21.454Z,15.80
2022-09-24T22:43:49.251Z,15.80
2022-09-24T22:46:17.362Z,16.00
2022-09-24T22:48:47.345Z,15.80
2022-09-24T22:51:15.736Z,15.80
2022-09-24T22:53:43.481Z,15.80
2022-09-24T22:56:13.394Z,15.90
2022-09-24T22:58:43.259Z,16.00
2022-09-24T23:01:13.538Z,15.90
2022-09-24T23:03:41.811Z,15.90
2022-09-24T23:06:12.659Z,15.90
2022-09-24T23:08:41.728Z,15.90
2022-09-24T23:11:11.144Z,15.80
2022-09-24T23:13:40.703Z,15.80
2022-09-24T23:16:11.645Z,15.80
2022-09-24T23:18:39.897Z,15.80
2022-09-24T23:21:10.977Z,15.90
2022-09-24T23:23:39.069Z,15.80
2022-09-24T23:26:08.072Z,16.00
2022-09-24T23:28:39.509Z,15.90
2022-09-24T23:31:08.568Z,15.90
2022-09-24T23:33:39.288Z,15.90
2022-09-24T23:36:08.583Z,16.00
2022-09-24T23:38:38.559Z,15.70
2022-09-24T23:41:06.977Z,15.60
2022-09-24T23:43:35.260Z,15.50
2022-09-24T23:46:03.926Z,15.60
2022-09-24T23:48:32.101Z,15.70
2022-09-24T23:51:00.457Z,15.80
2022-09-24T23:53:28.598Z,16.00
2022-09-24T23:55:57.648Z,15.90
2022-09-24T23:58:25.802Z,15.80
